sensor_id;sensor_type;location;lat;lon;timestamp;temperature;humidity
35027;DHT22;60696;51.426;6.934;2023-07-13T04:01:39;15.20;99.90
35027;DHT22;60696;51.426;6.934;2023-07-13T04:04:04;15.20;99.90
35027;DHT22;60696;51.426;6.934;2023-07-13T04:06:31;15.20;99.90
35027;DHT22;60696;51.426;6.934;2023-07-13T04:08:59;15.20;99.90
35027;DHT22;60696;51.426;6.934;2023-07-13T04:11:27;15.20;99.90
35027;DHT22;60696;51.426;6.934;2023-07-13T04:13:54;15.20;99.90
35027;DHT22;60696;51.426;6.934;2023-07-13T04:16:20;15.30;99.90
35027;DHT22;60696;51.426;6.934;2023-07-13T04:18:47;15.30;99.90
35027;DHT22;60696;51.426;6.934;2023-07-13T04:21:13;15.30;99.90
35027;DHT22;60696;51.426;6.934;2023-07-13T04:23:39;15.30;99.90
35027;DHT22;60696;51.426;6.934;2023-07-13T04:26:06;15.40;99.90
35027;DHT22;60696;51.426;6.934;2023-07-13T04:28:32;15.50;99.90
35027;DHT22;60696;51.426;6.934;2023-07-13T04:30:57;15.60;99.90
35027;DHT22;60696;51.426;6.934;2023-07-13T04:33:23;15.70;99.90
35027;DHT22;60696;51.426;6.934;2023-07-13T04:35:53;15.70;99.90
35027;DHT22;60696;51.426;6.934;2023-07-13T04:38:20;15.80;99.90
35027;DHT22;60696;51.426;6.934;2023-07-13T04:40:46;15.90;99.90
35027;DHT22;60696;51.426;6.934;2023-07-13T04:43:11;15.90;99.90
35027;DHT22;60696;51.426;6.934;2023-07-13T04:45:37;15.90;99.90
35027;DHT22;60696;51.426;6.934;2023-07-13T04:48:03;15.90;99.90
35027;DHT22;60696;51.426;6.934;2023-07-13T04:50:29;15.90;99.90
35027;DHT22;60696;51.426;6.934;2023-07-13T04:52:54;16.00;99.90
35027;DHT22;60696;51.426;6.934;2023-07-13T04:55:20;16.00;99.90
35027;DHT22;60696;51.426;6.934;2023-07-13T04:57:47;16.00;99.90
35027;DHT22;60696;51.426;6.934;2023-07-13T05:00:14;16.00;99.90
35027;DHT22;60696;51.426;6.934;2023-07-13T05:02:43;16.10;99.90
35027;DHT22;60696;51.426;6.934;2023-07-13T05:05:09;16.10;99.90
35027;DHT22;60696;51.426;6.934;2023-07-13T05:07:34;16.20;99.90
35027;DHT22;60696;51.426;6.934;2023-07-13T05:10:00;16.20;99.90
35027;DHT22;60696;51.426;6.934;2023-07-13T05:12:26;16.20;99.90
35027;DHT22;60696;51.426;6.934;2023-07-13T05:14:52;16.30;99.90
35027;DHT22;60696;51.426;6.934;2023-07-13T05:17:18;16.30;99.90
35027;DHT22;60696;51.426;6.934;2023-07-13T05:19:43;16.40;99.90
35027;DHT22;60696;51.426;6.934;2023-07-13T05:22:09;16.40;99.90
35027;DHT22;60696;51.426;6.934;2023-07-13T05:24:35;16.50;99.90
35027;DHT22;60696;51.426;6.934;2023-07-13T05:27:01;16.60;99.90
35027;DHT22;60696;51.426;6.934;2023-07-13T05:29:26;17.00;99.90
35027;DHT22;60696;51.426;6.934;2023-07-13T05:31:52;17.30;99.90
35027;DHT22;60696;51.426;6.934;2023-07-13T05:34:17;17.70;99.90
35027;DHT22;60696;51.426;6.934;2023-07-13T05:36:43;18.40;99.90
35027;DHT22;60696;51.426;6.934;2023-07-13T05:39:09;18.60;99.90
35027;DHT22;60696;51.426;6.934;2023-07-13T05:41:36;18.50;99.90
35027;DHT22;60696;51.426;6.934;2023-07-13T05:44:01;18.30;99.90
35027;DHT22;60696;51.426;6.934;2023-07-13T05:46:27;18.20;99.90
35027;DHT22;60696;51.426;6.934;2023-07-13T05:48:53;18.10;99.90
35027;DHT22;60696;51.426;6.934;2023-07-13T05:51:19;18.00;99.90
35027;DHT22;60696;51.426;6.934;2023-07-13T05:53:44;18.20;99.90
35027;DHT22;60696;51.426;6.934;2023-07-13T05:56:10;18.00;99.90
35027;DHT22;60696;51.426;6.934;2023-07-13T05:58:36;18.30;99.90
35027;DHT22;60696;51.426;6.934;2023-07-13T06:01:08;18.20;99.90
35027;DHT22;60696;51.426;6.934;2023-07-13T06:03:34;18.20;99.90
35027;DHT22;60696;51.426;6.934;2023-07-13T06:05:59;18.60;99.90
35027;DHT22;60696;51.426;6.934;2023-07-13T06:08:26;19.30;99.90
35027;DHT22;60696;51.426;6.934;2023-07-13T06:10:52;20.10;99.90
35027;DHT22;60696;51.426;6.934;2023-07-13T06:13:17;20.80;99.50
35027;DHT22;60696;51.426;6.934;2023-07-13T06:15:50;21.70;97.40
35027;DHT22;60696;51.426;6.934;2023-07-13T06:18:16;22.50;93.30
35027;DHT22;60696;51.426;6.934;2023-07-13T06:20:42;23.20;91.90
35027;DHT22;60696;51.426;6.934;2023-07-13T06:23:07;24.10;87.20
35027;DHT22;60696;51.426;6.934;2023-07-13T06:25:33;24.20;80.90
35027;DHT22;60696;51.426;6.934;2023-07-13T06:27:59;23.80;80.70
35027;DHT22;60696;51.426;6.934;2023-07-13T06:30:25;23.90;79.90
35027;DHT22;60696;51.426;6.934;2023-07-13T06:32:51;24.20;78.80
35027;DHT22;60696;51.426;6.934;2023-07-13T06:35:17;24.60;76.90
35027;DHT22;60696;51.426;6.934;2023-07-13T06:37:42;24.30;74.90
35027;DHT22;60696;51.426;6.934;2023-07-13T06:40:08;24.20;77.50
35027;DHT22;60696;51.426;6.934;2023-07-13T06:42:34;24.60;75.00
35027;DHT22;60696;51.426;6.934;2023-07-13T06:44:59;24.40;74.00
35027;DHT22;60696;51.426;6.934;2023-07-13T06:47:25;24.70;73.40
35027;DHT22;60696;51.426;6.934;2023-07-13T06:49:51;24.40;74.80
35027;DHT22;60696;51.426;6.934;2023-07-13T06:52:17;25.00;74.20
35027;DHT22;60696;51.426;6.934;2023-07-13T06:54:43;25.40;71.40
35027;DHT22;60696;51.426;6.934;2023-07-13T06:57:09;25.30;70.40
35027;DHT22;60696;51.426;6.934;2023-07-13T06:59:34;24.90;73.00
35027;DHT22;60696;51.426;6.934;2023-07-13T07:02:00;25.60;70.80
35027;DHT22;60696;51.426;6.934;2023-07-13T07:04:25;26.10;66.40
35027;DHT22;60696;51.426;6.934;2023-07-13T07:06:51;26.80;68.20
35027;DHT22;60696;51.426;6.934;2023-07-13T07:09:17;27.10;64.40
35027;DHT22;60696;51.426;6.934;2023-07-13T07:11:42;26.50;63.60
35027;DHT22;60696;51.426;6.934;2023-07-13T07:14:08;25.00;70.10
35027;DHT22;60696;51.426;6.934;2023-07-13T07:16:34;24.20;74.30
35027;DHT22;60696;51.426;6.934;2023-07-13T07:18:59;23.30;77.00
35027;DHT22;60696;51.426;6.934;2023-07-13T07:21:25;22.80;77.80
35027;DHT22;60696;51.426;6.934;2023-07-13T07:23:51;22.60;82.20
35027;DHT22;60696;51.426;6.934;2023-07-13T07:26:17;23.10;83.10
35027;DHT22;60696;51.426;6.934;2023-07-13T07:28:43;22.70;82.30
35027;DHT22;60696;51.426;6.934;2023-07-13T07:31:09;22.60;80.90
35027;DHT22;60696;51.426;6.934;2023-07-13T07:33:35;22.60;81.60
35027;DHT22;60696;51.426;6.934;2023-07-13T07:36:01;23.10;83.20
35027;DHT22;60696;51.426;6.934;2023-07-13T07:38:27;23.40;81.70
35027;DHT22;60696;51.426;6.934;2023-07-13T07:40:52;23.50;80.80
35027;DHT22;60696;51.426;6.934;2023-07-13T07:43:18;24.00;78.60
35027;DHT22;60696;51.426;6.934;2023-07-13T07:45:44;25.00;77.90
35027;DHT22;60696;51.426;6.934;2023-07-13T07:48:11;25.80;71.60
35027;DHT22;60696;51.426;6.934;2023-07-13T07:50:36;26.50;67.10
35027;DHT22;60696;51.426;6.934;2023-07-13T07:53:02;26.30;68.00
35027;DHT22;60696;51.426;6.934;2023-07-13T07:55:28;26.70;66.00
35027;DHT22;60696;51.426;6.934;2023-07-13T07:57:55;27.20;64.10
35027;DHT22;60696;51.426;6.934;2023-07-13T08:00:21;27.60;63.80
35027;DHT22;60696;51.426;6.934;2023-07-13T08:02:47;28.30;62.70
35027;DHT22;60696;51.426;6.934;2023-07-13T08:05:13;29.40;60.60
35027;DHT22;60696;51.426;6.934;2023-07-13T08:07:39;28.90;57.80
35027;DHT22;60696;51.426;6.934;2023-07-13T08:10:06;27.90;57.40
35027;DHT22;60696;51.426;6.934;2023-07-13T08:12:39;26.90;61.10
35027;DHT22;60696;51.426;6.934;2023-07-13T08:15:08;26.10;61.00
35027;DHT22;60696;51.426;6.934;2023-07-13T08:17:34;25.90;63.90
35027;DHT22;60696;51.426;6.934;2023-07-13T08:20:00;25.90;62.60
35027;DHT22;60696;51.426;6.934;2023-07-13T08:22:27;26.00;63.80
35027;DHT22;60696;51.426;6.934;2023-07-13T08:24:52;25.90;62.70
35027;DHT22;60696;51.426;6.934;2023-07-13T08:27:25;26.60;62.10
35027;DHT22;60696;51.426;6.934;2023-07-13T08:29:51;27.50;59.70
35027;DHT22;60696;51.426;6.934;2023-07-13T08:32:18;27.60;61.90
35027;DHT22;60696;51.426;6.934;2023-07-13T08:34:44;28.70;56.30
35027;DHT22;60696;51.426;6.934;2023-07-13T08:37:09;28.50;57.00
35027;DHT22;60696;51.426;6.934;2023-07-13T08:39:35;28.80;57.80
35027;DHT22;60696;51.426;6.934;2023-07-13T08:42:05;29.10;55.50
35027;DHT22;60696;51.426;6.934;2023-07-13T08:44:39;29.30;53.30
35027;DHT22;60696;51.426;6.934;2023-07-13T08:47:06;29.10;56.10
35027;DHT22;60696;51.426;6.934;2023-07-13T08:49:33;28.60;54.50
35027;DHT22;60696;51.426;6.934;2023-07-13T08:52:08;28.20;55.00
35027;DHT22;60696;51.426;6.934;2023-07-13T08:54:47;27.80;57.20
35027;DHT22;60696;51.426;6.934;2023-07-13T08:57:18;26.50;60.00
35027;DHT22;60696;51.426;6.934;2023-07-13T08:59:45;26.70;60.70
35027;DHT22;60696;51.426;6.934;2023-07-13T09:02:41;26.30;60.70
35027;DHT22;60696;51.426;6.934;2023-07-13T09:05:35;26.20;62.00
35027;DHT22;60696;51.426;6.934;2023-07-13T09:10:50;26.70;64.90
35027;DHT22;60696;51.426;6.934;2023-07-13T09:13:20;27.00;62.70
35027;DHT22;60696;51.426;6.934;2023-07-13T09:15:49;27.30;60.00
35027;DHT22;60696;51.426;6.934;2023-07-13T09:18:23;27.00;60.30
35027;DHT22;60696;51.426;6.934;2023-07-13T09:23:29;27.30;65.90
35027;DHT22;60696;51.426;6.934;2023-07-13T09:28:36;27.60;63.00
35027;DHT22;60696;51.426;6.934;2023-07-13T09:31:16;26.50;61.50
35027;DHT22;60696;51.426;6.934;2023-07-13T09:33:42;25.90;65.00
35027;DHT22;60696;51.426;6.934;2023-07-13T09:36:24;25.00;66.10
35027;DHT22;60696;51.426;6.934;2023-07-13T09:39:14;24.60;68.10
35027;DHT22;60696;51.426;6.934;2023-07-13T09:41:48;24.70;68.10
35027;DHT22;60696;51.426;6.934;2023-07-13T09:44:18;25.00;68.70
35027;DHT22;60696;51.426;6.934;2023-07-13T09:46:53;24.80;69.90
35027;DHT22;60696;51.426;6.934;2023-07-13T09:49:27;24.60;67.40
35027;DHT22;60696;51.426;6.934;2023-07-13T09:52:07;24.10;69.90
35027;DHT22;60696;51.426;6.934;2023-07-13T09:54:37;24.30;71.90
35027;DHT22;60696;51.426;6.934;2023-07-13T09:57:11;24.70;73.30
35027;DHT22;60696;51.426;6.934;2023-07-13T09:59:44;24.70;71.30
35027;DHT22;60696;51.426;6.934;2023-07-13T10:02:30;24.80;73.30
35027;DHT22;60696;51.426;6.934;2023-07-13T10:07:27;24.70;69.00
35027;DHT22;60696;51.426;6.934;2023-07-13T10:09:57;25.00;69.60
35027;DHT22;60696;51.426;6.934;2023-07-13T10:12:23;24.90;70.80
35027;DHT22;60696;51.426;6.934;2023-07-13T10:17:32;24.30;69.60
35027;DHT22;60696;51.426;6.934;2023-07-13T10:20:04;23.90;72.10
35027;DHT22;60696;51.426;6.934;2023-07-13T10:23:01;23.80;77.70
35027;DHT22;60696;51.426;6.934;2023-07-13T10:25:29;24.20;80.50
35027;DHT22;60696;51.426;6.934;2023-07-13T10:28:06;24.10;73.80
35027;DHT22;60696;51.426;6.934;2023-07-13T10:30:42;24.20;79.30
35027;DHT22;60696;51.426;6.934;2023-07-13T10:33:10;24.60;75.40
35027;DHT22;60696;51.426;6.934;2023-07-13T10:35:37;24.50;70.90
35027;DHT22;60696;51.426;6.934;2023-07-13T10:38:11;24.10;71.50
35027;DHT22;60696;51.426;6.934;2023-07-13T10:40:56;23.80;72.60
35027;DHT22;60696;51.426;6.934;2023-07-13T10:43:29;23.60;71.90
35027;DHT22;60696;51.426;6.934;2023-07-13T10:45:57;23.50;74.60
35027;DHT22;60696;51.426;6.934;2023-07-13T10:48:24;23.70;74.90
35027;DHT22;60696;51.426;6.934;2023-07-13T10:50:52;23.90;74.50
35027;DHT22;60696;51.426;6.934;2023-07-13T10:58:22;23.80;76.40
35027;DHT22;60696;51.426;6.934;2023-07-13T11:03:34;24.30;78.00
35027;DHT22;60696;51.426;6.934;2023-07-13T11:06:11;24.40;73.70
35027;DHT22;60696;51.426;6.934;2023-07-13T11:08:52;24.30;75.70
35027;DHT22;60696;51.426;6.934;2023-07-13T11:18:45;23.30;72.80
35027;DHT22;60696;51.426;6.934;2023-07-13T11:21:29;23.00;72.60
35027;DHT22;60696;51.426;6.934;2023-07-13T11:24:15;23.30;74.70
35027;DHT22;60696;51.426;6.934;2023-07-13T11:26:43;23.90;75.60
35027;DHT22;60696;51.426;6.934;2023-07-13T11:31:58;24.20;74.00
35027;DHT22;60696;51.426;6.934;2023-07-13T11:34:29;23.90;70.50
35027;DHT22;60696;51.426;6.934;2023-07-13T11:36:56;23.40;72.00
35027;DHT22;60696;51.426;6.934;2023-07-13T11:39:29;23.60;74.10
35027;DHT22;60696;51.426;6.934;2023-07-13T11:42:05;24.00;75.00
35027;DHT22;60696;51.426;6.934;2023-07-13T11:44:34;24.30;75.10
35027;DHT22;60696;51.426;6.934;2023-07-13T11:47:08;24.50;73.50
35027;DHT22;60696;51.426;6.934;2023-07-13T11:50:00;24.20;68.70
35027;DHT22;60696;51.426;6.934;2023-07-13T11:52:46;24.30;68.10
35027;DHT22;60696;51.426;6.934;2023-07-13T11:55:39;24.20;68.20
35027;DHT22;60696;51.426;6.934;2023-07-13T11:58:47;24.20;68.90
35027;DHT22;60696;51.426;6.934;2023-07-13T12:08:19;24.00;69.80
35027;DHT22;60696;51.426;6.934;2023-07-13T12:14:41;24.70;63.70
35027;DHT22;60696;51.426;6.934;2023-07-13T12:17:56;24.40;68.20
35027;DHT22;60696;51.426;6.934;2023-07-13T12:24:13;24.40;65.00
35027;DHT22;60696;51.426;6.934;2023-07-13T12:27:22;24.20;68.50
35027;DHT22;60696;51.426;6.934;2023-07-13T12:30:30;24.20;66.20
35027;DHT22;60696;51.426;6.934;2023-07-13T12:36:59;23.70;64.70
35027;DHT22;60696;51.426;6.934;2023-07-13T12:42:23;23.40;69.30
35027;DHT22;60696;51.426;6.934;2023-07-13T12:45:18;23.90;71.20
35027;DHT22;60696;51.426;6.934;2023-07-13T12:47:48;24.20;67.00
35027;DHT22;60696;51.426;6.934;2023-07-13T12:50:23;24.00;65.30
35027;DHT22;60696;51.426;6.934;2023-07-13T12:52:54;23.90;67.00
35027;DHT22;60696;51.426;6.934;2023-07-13T12:55:21;23.60;64.80
35027;DHT22;60696;51.426;6.934;2023-07-13T12:57:56;23.30;65.50
35027;DHT22;60696;51.426;6.934;2023-07-13T13:00:29;23.00;66.80
35027;DHT22;60696;51.426;6.934;2023-07-13T13:03:02;22.90;67.10
35027;DHT22;60696;51.426;6.934;2023-07-13T13:05:30;22.80;71.80
35027;DHT22;60696;51.426;6.934;2023-07-13T13:07:56;22.60;71.40
35027;DHT22;60696;51.426;6.934;2023-07-13T13:10:22;22.30;70.10
35027;DHT22;60696;51.426;6.934;2023-07-13T13:12:48;22.20;71.80
35027;DHT22;60696;51.426;6.934;2023-07-13T13:15:14;22.00;71.80
35027;DHT22;60696;51.426;6.934;2023-07-13T13:17:43;21.70;72.80
35027;DHT22;60696;51.426;6.934;2023-07-13T13:20:20;21.60;73.20
35027;DHT22;60696;51.426;6.934;2023-07-13T13:22:46;21.60;75.50
35027;DHT22;60696;51.426;6.934;2023-07-13T13:25:13;21.60;79.20
35027;DHT22;60696;51.426;6.934;2023-07-13T13:27:41;21.70;81.90
35027;DHT22;60696;51.426;6.934;2023-07-13T13:30:11;22.00;85.10
35027;DHT22;60696;51.426;6.934;2023-07-13T13:32:47;22.40;83.20
35027;DHT22;60696;51.426;6.934;2023-07-13T13:35:18;22.70;82.20
35027;DHT22;60696;51.426;6.934;2023-07-13T13:37:45;23.30;82.40
35027;DHT22;60696;51.426;6.934;2023-07-13T13:40:16;23.70;78.20
35027;DHT22;60696;51.426;6.934;2023-07-13T13:42:42;24.00;75.90
35027;DHT22;60696;51.426;6.934;2023-07-13T13:45:10;24.40;73.70
35027;DHT22;60696;51.426;6.934;2023-07-13T13:47:36;24.70;73.70
35027;DHT22;60696;51.426;6.934;2023-07-13T13:50:21;24.70;68.30
35027;DHT22;60696;51.426;6.934;2023-07-13T13:52:50;24.40;65.80
35027;DHT22;60696;51.426;6.934;2023-07-13T13:55:18;24.30;69.00
35027;DHT22;60696;51.426;6.934;2023-07-13T13:57:48;24.10;67.20
35027;DHT22;60696;51.426;6.934;2023-07-13T14:00:15;23.60;68.20
35027;DHT22;60696;51.426;6.934;2023-07-13T14:02:45;23.40;69.50
35027;DHT22;60696;51.426;6.934;2023-07-13T14:05:23;23.30;69.70
35027;DHT22;60696;51.426;6.934;2023-07-13T14:07:49;22.70;70.70
35027;DHT22;60696;51.426;6.934;2023-07-13T14:10:17;22.50;71.70
35027;DHT22;60696;51.426;6.934;2023-07-13T14:12:45;22.20;74.00
35027;DHT22;60696;51.426;6.934;2023-07-13T14:15:23;22.00;82.90
35027;DHT22;60696;51.426;6.934;2023-07-13T14:17:49;21.80;90.10
35027;DHT22;60696;51.426;6.934;2023-07-13T14:20:19;21.60;92.90
35027;DHT22;60696;51.426;6.934;2023-07-13T14:22:46;21.60;94.30
35027;DHT22;60696;51.426;6.934;2023-07-13T14:25:13;21.60;92.90
35027;DHT22;60696;51.426;6.934;2023-07-13T14:27:40;21.70;93.30
35027;DHT22;60696;51.426;6.934;2023-07-13T14:30:18;21.80;93.90
35027;DHT22;60696;51.426;6.934;2023-07-13T14:32:44;21.70;94.30
35027;DHT22;60696;51.426;6.934;2023-07-13T14:35:12;21.60;94.20
35027;DHT22;60696;51.426;6.934;2023-07-13T14:37:39;21.40;95.70
35027;DHT22;60696;51.426;6.934;2023-07-13T14:42:41;21.40;95.60
35027;DHT22;60696;51.426;6.934;2023-07-13T14:45:25;21.40;95.30
35027;DHT22;60696;51.426;6.934;2023-07-13T14:47:51;21.60;95.50
35027;DHT22;60696;51.426;6.934;2023-07-13T14:50:40;21.50;94.30
35027;DHT22;60696;51.426;6.934;2023-07-13T14:53:11;21.90;95.40
35027;DHT22;60696;51.426;6.934;2023-07-13T14:55:37;22.10;95.50
35027;DHT22;60696;51.426;6.934;2023-07-13T14:58:03;22.40;92.40
35027;DHT22;60696;51.426;6.934;2023-07-13T15:00:28;22.30;93.30
35027;DHT22;60696;51.426;6.934;2023-07-13T15:02:56;22.10;93.00
35027;DHT22;60696;51.426;6.934;2023-07-13T15:05:30;22.10;93.00
35027;DHT22;60696;51.426;6.934;2023-07-13T15:08:02;22.10;91.90
35027;DHT22;60696;51.426;6.934;2023-07-13T15:10:31;22.10;93.50
35027;DHT22;60696;51.426;6.934;2023-07-13T15:13:18;22.20;91.40
35027;DHT22;60696;51.426;6.934;2023-07-13T15:15:50;22.20;91.30
35027;DHT22;60696;51.426;6.934;2023-07-13T15:18:19;22.40;93.40
35027;DHT22;60696;51.426;6.934;2023-07-13T15:20:47;22.40;92.40
35027;DHT22;60696;51.426;6.934;2023-07-13T15:23:15;22.30;92.20
35027;DHT22;60696;51.426;6.934;2023-07-13T15:25:45;22.20;92.60
35027;DHT22;60696;51.426;6.934;2023-07-13T15:28:11;22.00;92.00
35027;DHT22;60696;51.426;6.934;2023-07-13T15:35:47;20.90;99.90
35027;DHT22;60696;51.426;6.934;2023-07-13T15:38:19;20.40;99.90
35027;DHT22;60696;51.426;6.934;2023-07-13T15:40:46;20.20;99.90
35027;DHT22;60696;51.426;6.934;2023-07-13T15:43:14;20.20;99.90
35027;DHT22;60696;51.426;6.934;2023-07-13T15:45:40;20.20;99.90
35027;DHT22;60696;51.426;6.934;2023-07-13T15:48:20;20.20;99.90
35027;DHT22;60696;51.426;6.934;2023-07-13T15:50:51;20.00;99.90
35027;DHT22;60696;51.426;6.934;2023-07-13T15:53:20;20.10;99.90
35027;DHT22;60696;51.426;6.934;2023-07-13T15:55:53;20.00;99.90
35027;DHT22;60696;51.426;6.934;2023-07-13T15:58:19;20.10;99.90
35027;DHT22;60696;51.426;6.934;2023-07-13T16:00:46;20.20;99.90
35027;DHT22;60696;51.426;6.934;2023-07-13T16:03:11;20.30;98.10
35027;DHT22;60696;51.426;6.934;2023-07-13T16:05:38;20.40;96.60
35027;DHT22;60696;51.426;6.934;2023-07-13T16:08:06;20.60;97.00
35027;DHT22;60696;51.426;6.934;2023-07-13T16:10:33;20.70;96.70
35027;DHT22;60696;51.426;6.934;2023-07-13T16:13:00;20.70;95.10
35027;DHT22;60696;51.426;6.934;2023-07-13T16:15:26;20.70;95.60
35027;DHT22;60696;51.426;6.934;2023-07-13T16:17:52;20.70;94.40
35027;DHT22;60696;51.426;6.934;2023-07-13T16:20:18;20.80;95.00
35027;DHT22;60696;51.426;6.934;2023-07-13T16:22:48;20.50;93.10
35027;DHT22;60696;51.426;6.934;2023-07-13T16:25:20;20.50;95.40
35027;DHT22;60696;51.426;6.934;2023-07-13T16:27:47;20.40;96.10
35027;DHT22;60696;51.426;6.934;2023-07-13T16:30:24;20.40;94.40
35027;DHT22;60696;51.426;6.934;2023-07-13T16:32:55;20.50;96.10
35027;DHT22;60696;51.426;6.934;2023-07-13T16:35:24;20.60;95.60
35027;DHT22;60696;51.426;6.934;2023-07-13T16:37:51;20.70;96.30
35027;DHT22;60696;51.426;6.934;2023-07-13T16:40:24;20.80;96.00
35027;DHT22;60696;51.426;6.934;2023-07-13T16:42:51;20.90;95.40
35027;DHT22;60696;51.426;6.934;2023-07-13T16:45:19;21.00;95.30
35027;DHT22;60696;51.426;6.934;2023-07-13T16:47:47;21.10;95.50
35027;DHT22;60696;51.426;6.934;2023-07-13T16:50:16;20.90;94.50
35027;DHT22;60696;51.426;6.934;2023-07-13T16:52:41;20.80;94.70
35027;DHT22;60696;51.426;6.934;2023-07-13T16:55:10;20.60;94.20
35027;DHT22;60696;51.426;6.934;2023-07-13T16:57:37;20.70;95.00
35027;DHT22;60696;51.426;6.934;2023-07-13T17:00:20;20.60;94.90
35027;DHT22;60696;51.426;6.934;2023-07-13T17:02:52;20.60;95.90
35027;DHT22;60696;51.426;6.934;2023-07-13T17:05:17;20.60;94.50
35027;DHT22;60696;51.426;6.934;2023-07-13T17:07:44;20.60;95.20
35027;DHT22;60696;51.426;6.934;2023-07-13T17:10:21;20.50;94.80
35027;DHT22;60696;51.426;6.934;2023-07-13T17:12:52;20.50;94.90
35027;DHT22;60696;51.426;6.934;2023-07-13T17:15:18;20.50;93.90
35027;DHT22;60696;51.426;6.934;2023-07-13T17:17:47;20.40;93.60
35027;DHT22;60696;51.426;6.934;2023-07-13T17:22:47;20.40;93.60
35027;DHT22;60696;51.426;6.934;2023-07-13T17:25:13;20.40;94.30
35027;DHT22;60696;51.426;6.934;2023-07-13T17:27:40;20.40;93.50
35027;DHT22;60696;51.426;6.934;2023-07-13T17:30:09;20.40;93.50
35027;DHT22;60696;51.426;6.934;2023-07-13T17:32:38;20.40;93.90
35027;DHT22;60696;51.426;6.934;2023-07-13T17:35:26;20.40;94.70
35027;DHT22;60696;51.426;6.934;2023-07-13T17:37:54;20.40;93.50
35027;DHT22;60696;51.426;6.934;2023-07-13T17:40:20;20.40;94.40
35027;DHT22;60696;51.426;6.934;2023-07-13T17:42:48;20.40;94.00
35027;DHT22;60696;51.426;6.934;2023-07-13T17:45:13;20.40;93.90
35027;DHT22;60696;51.426;6.934;2023-07-13T17:47:46;20.30;92.20
35027;DHT22;60696;51.426;6.934;2023-07-13T17:50:15;20.30;93.00
35027;DHT22;60696;51.426;6.934;2023-07-13T17:52:42;20.40;93.90
35027;DHT22;60696;51.426;6.934;2023-07-13T17:55:15;20.50;93.70
35027;DHT22;60696;51.426;6.934;2023-07-13T18:00:08;20.50;94.90
35027;DHT22;60696;51.426;6.934;2023-07-13T18:02:54;20.40;94.80
35027;DHT22;60696;51.426;6.934;2023-07-13T18:05:22;20.40;96.00
35027;DHT22;60696;51.426;6.934;2023-07-13T18:07:51;20.40;97.30
35027;DHT22;60696;51.426;6.934;2023-07-13T18:10:18;20.30;96.60
35027;DHT22;60696;51.426;6.934;2023-07-13T18:12:44;20.20;97.10
35027;DHT22;60696;51.426;6.934;2023-07-13T18:15:13;20.10;99.00
35027;DHT22;60696;51.426;6.934;2023-07-13T18:17:44;20.00;99.70
35027;DHT22;60696;51.426;6.934;2023-07-13T18:20:14;20.00;99.60
35027;DHT22;60696;51.426;6.934;2023-07-13T18:22:42;19.90;99.90
35027;DHT22;60696;51.426;6.934;2023-07-13T18:25:16;19.80;99.40
35027;DHT22;60696;51.426;6.934;2023-07-13T18:27:42;19.60;99.90
35027;DHT22;60696;51.426;6.934;2023-07-13T18:30:10;19.60;99.90
35027;DHT22;60696;51.426;6.934;2023-07-13T18:32:41;19.50;99.90
35027;DHT22;60696;51.426;6.934;2023-07-13T18:35:18;19.30;99.90
35027;DHT22;60696;51.426;6.934;2023-07-13T18:37:45;19.20;99.90
35027;DHT22;60696;51.426;6.934;2023-07-13T18:40:17;19.10;99.90
35027;DHT22;60696;51.426;6.934;2023-07-13T18:42:46;19.10;99.90
35027;DHT22;60696;51.426;6.934;2023-07-13T18:45:13;19.00;99.90
35027;DHT22;60696;51.426;6.934;2023-07-13T18:47:43;18.90;99.90
35027;DHT22;60696;51.426;6.934;2023-07-13T18:50:16;18.90;99.90
35027;DHT22;60696;51.426;6.934;2023-07-13T18:52:42;18.80;99.90
35027;DHT22;60696;51.426;6.934;2023-07-13T18:55:19;18.80;99.90
35027;DHT22;60696;51.426;6.934;2023-07-13T18:57:46;18.70;99.90
35027;DHT22;60696;51.426;6.934;2023-07-13T19:00:15;18.60;99.90
35027;DHT22;60696;51.426;6.934;2023-07-13T19:02:42;18.60;99.90
35027;DHT22;60696;51.426;6.934;2023-07-13T19:05:15;18.60;99.90
35027;DHT22;60696;51.426;6.934;2023-07-13T19:07:50;18.50;99.90
35027;DHT22;60696;51.426;6.934;2023-07-13T19:10:24;18.60;99.90
35027;DHT22;60696;51.426;6.934;2023-07-13T19:12:54;18.60;99.90
35027;DHT22;60696;51.426;6.934;2023-07-13T19:15:26;18.50;99.90
35027;DHT22;60696;51.426;6.934;2023-07-13T19:17:56;18.50;99.90
35027;DHT22;60696;51.426;6.934;2023-07-13T19:20:26;18.40;99.90
35027;DHT22;60696;51.426;6.934;2023-07-13T19:23:01;18.40;99.90
35027;DHT22;60696;51.426;6.934;2023-07-13T19:25:33;18.40;99.90
35027;DHT22;60696;51.426;6.934;2023-07-13T19:28:02;18.30;99.90
35027;DHT22;60696;51.426;6.934;2023-07-13T19:30:31;18.10;99.90
35027;DHT22;60696;51.426;6.934;2023-07-13T19:32:58;18.10;99.90
35027;DHT22;60696;51.426;6.934;2023-07-13T19:35:24;18.00;99.90
35027;DHT22;60696;51.426;6.934;2023-07-13T19:37:51;18.00;99.90
35027;DHT22;60696;51.426;6.934;2023-07-13T19:40:21;17.90;99.90
35027;DHT22;60696;51.426;6.934;2023-07-13T19:42:47;17.80;99.90
35027;DHT22;60696;51.426;6.934;2023-07-13T19:45:19;17.80;99.90
35027;DHT22;60696;51.426;6.934;2023-07-13T19:47:46;17.90;99.90
35027;DHT22;60696;51.426;6.934;2023-07-13T19:50:13;17.80;99.90
35027;DHT22;60696;51.426;6.934;2023-07-13T19:52:46;17.70;99.90
35027;DHT22;60696;51.426;6.934;2023-07-13T19:55:15;17.70;99.90
35027;DHT22;60696;51.426;6.934;2023-07-13T19:57:41;17.70;99.90
35027;DHT22;60696;51.426;6.934;2023-07-13T20:00:19;17.70;99.90
35027;DHT22;60696;51.426;6.934;2023-07-13T20:02:47;17.60;99.90
35027;DHT22;60696;51.426;6.934;2023-07-13T20:05:17;17.60;99.90
35027;DHT22;60696;51.426;6.934;2023-07-13T20:07:51;17.60;99.90
35027;DHT22;60696;51.426;6.934;2023-07-13T20:10:26;17.50;99.90
35027;DHT22;60696;51.426;6.934;2023-07-13T20:12:55;17.50;99.90
35027;DHT22;60696;51.426;6.934;2023-07-13T20:15:23;17.50;99.90
35027;DHT22;60696;51.426;6.934;2023-07-13T20:17:52;17.40;99.90
35027;DHT22;60696;51.426;6.934;2023-07-13T20:20:33;17.40;99.90
35027;DHT22;60696;51.426;6.934;2023-07-13T20:22:59;17.40;99.90
35027;DHT22;60696;51.426;6.934;2023-07-13T20:25:28;17.40;99.90
35027;DHT22;60696;51.426;6.934;2023-07-13T20:27:55;17.40;99.90
35027;DHT22;60696;51.426;6.934;2023-07-13T20:30:23;17.30;99.90
35027;DHT22;60696;51.426;6.934;2023-07-13T20:32:49;17.40;99.90
35027;DHT22;60696;51.426;6.934;2023-07-13T20:35:32;17.40;99.90
35027;DHT22;60696;51.426;6.934;2023-07-13T20:38:00;17.40;99.90
35027;DHT22;60696;51.426;6.934;2023-07-13T20:40:29;17.40;99.90
35027;DHT22;60696;51.426;6.934;2023-07-13T20:42:54;17.40;99.90
35027;DHT22;60696;51.426;6.934;2023-07-13T20:45:23;17.50;99.90
35027;DHT22;60696;51.426;6.934;2023-07-13T20:47:50;17.60;99.90
35027;DHT22;60696;51.426;6.934;2023-07-13T20:50:25;17.50;99.90
35027;DHT22;60696;51.426;6.934;2023-07-13T20:52:59;17.50;99.90